Time;durP1;ratioP1;P1;durP2;ratioP2;P2;SDS_P1;SDS_P2;PMS_P1;PMS_P2;Temp;Humidity;BMP_temperature;BMP_pressure;BME280_temperature;BME280_humidity;BME280_pressure;Samples;Min_cycle;Max_cycle;Signal;HPM_P1;HPM_P2
2023/08/20 00:02:25;;;;;;;33.83;20.08;;;22.50;94.20;;;;;;4905775;29;20032;-88
2023/08/20 00:04:51;;;;;;;26.42;19.80;;;22.50;94.40;;;;;;4914222;29;20025;-88
2023/08/20 00:07:18;;;;;;;24.15;18.95;;;22.50;94.40;;;;;;4920322;29;20032;-90
2023/08/20 00:09:44;;;;;;;26.60;17.75;;;22.50;94.40;;;;;;4918823;29;20021;-88
2023/08/20 00:12:10;;;;;;;23.35;17.23;;;22.50;94.30;;;;;;4903623;29;20032;-89
2023/08/20 00:15:15;;;;;;;29.83;19.20;;;22.50;94.20;;;;;;4904822;29;20020;-90
2023/08/20 00:17:41;;;;;;;25.38;19.65;;;22.50;93.90;;;;;;4870146;29;20029;-86
2023/08/20 00:20:12;;;;;;;27.20;19.58;;;22.50;93.90;;;;;;4874367;29;20049;-87
2023/08/20 00:22:42;;;;;;;20.67;18.48;;;22.50;93.70;;;;;;4882087;29;20292;-89
2023/08/20 00:25:08;;;;;;;23.90;19.23;;;22.50;93.40;;;;;;4872826;29;20396;-90
2023/08/20 00:27:34;;;;;;;21.90;18.43;;;22.50;93.90;;;;;;4875377;29;20033;-87
2023/08/20 00:30:00;;;;;;;27.70;19.25;;;22.50;93.90;;;;;;4881964;29;20360;-88
2023/08/20 00:32:27;;;;;;;26.80;19.25;;;22.50;93.60;;;;;;4884302;29;20025;-88
2023/08/20 00:34:53;;;;;;;23.50;19.80;;;22.50;93.60;;;;;;4880354;29;20072;-87
2023/08/20 00:37:19;;;;;;;33.17;19.33;;;22.50;93.40;;;;;;4877093;29;20037;-88
2023/08/20 00:39:44;;;;;;;39.20;21.65;;;22.50;93.70;;;;;;4892688;29;20013;-91
2023/08/20 00:42:11;;;;;;;26.35;19.88;;;22.50;93.90;;;;;;4908914;29;20433;-88
2023/08/20 00:44:37;;;;;;;31.73;21.80;;;22.50;93.90;;;;;;4871874;29;20025;-88
2023/08/20 00:47:05;;;;;;;25.85;20.23;;;22.50;93.80;;;;;;4881850;29;20057;-89
2023/08/20 00:49:32;;;;;;;29.25;20.15;;;22.50;93.70;;;;;;4908638;29;20502;-87
2023/08/20 00:51:59;;;;;;;37.13;21.77;;;22.40;94.20;;;;;;4910382;29;20073;-87
2023/08/20 00:54:26;;;;;;;29.73;19.95;;;22.40;94.80;;;;;;4911900;29;20040;-88
2023/08/20 00:56:53;;;;;;;28.25;20.58;;;22.30;94.70;;;;;;4904853;29;20027;-88
2023/08/20 00:59:19;;;;;;;31.73;21.10;;;22.30;94.80;;;;;;4916043;29;20036;-88
2023/08/20 01:01:46;;;;;;;36.90;21.00;;;22.20;94.90;;;;;;4905981;29;20444;-87
2023/08/20 01:04:12;;;;;;;40.10;21.40;;;22.20;95.20;;;;;;4915868;29;20033;-90
2023/08/20 01:07:01;;;;;;;40.17;23.08;;;22.20;95.30;;;;;;4899684;29;20117;-87
2023/08/20 01:09:43;;;;;;;36.03;21.52;;;22.20;95.40;;;;;;4918705;29;20412;-86
2023/08/20 01:12:10;;;;;;;25.75;19.98;;;22.20;95.50;;;;;;4899321;29;20410;-88
2023/08/20 01:14:36;;;;;;;31.10;21.23;;;22.20;95.10;;;;;;4893274;29;20029;-86
2023/08/20 01:17:02;;;;;;;22.58;18.75;;;22.20;95.30;;;;;;4894822;29;20458;-87
2023/08/20 01:19:28;;;;;;;38.17;21.58;;;22.20;95.50;;;;;;4909325;29;20071;-86
2023/08/20 01:22:15;;;;;;;34.15;21.60;;;22.20;95.70;;;;;;4904063;29;20049;-87
2023/08/20 01:25:03;;;;;;;28.38;21.40;;;22.20;95.70;;;;;;4897727;29;20048;-87
2023/08/20 01:27:47;;;;;;;35.63;21.42;;;22.20;95.80;;;;;;4915653;29;20558;-89
2023/08/20 01:30:14;;;;;;;25.08;20.15;;;22.20;95.70;;;;;;4914713;29;20031;-86
2023/08/20 01:32:42;;;;;;;27.65;20.58;;;22.20;95.70;;;;;;4918799;29;20063;-86
2023/08/20 01:35:16;;;;;;;26.73;20.45;;;22.20;95.70;;;;;;4924920;29;20033;-87
2023/08/20 01:37:42;;;;;;;34.00;19.90;;;22.20;95.60;;;;;;4917664;29;20036;-88
2023/08/20 01:40:10;;;;;;;30.55;19.83;;;22.20;95.60;;;;;;4895392;29;20032;-88
2023/08/20 01:42:40;;;;;;;29.55;19.70;;;22.20;95.70;;;;;;4913764;29;20096;-88
2023/08/20 01:45:07;;;;;;;25.02;19.90;;;22.20;95.70;;;;;;4900599;29;20112;-86
2023/08/20 01:47:33;;;;;;;26.65;19.67;;;22.20;95.60;;;;;;4908251;29;20045;-88
2023/08/20 01:49:59;;;;;;;21.80;19.15;;;22.20;95.70;;;;;;4911706;29;20041;-88
2023/08/20 01:52:25;;;;;;;31.50;19.75;;;22.20;95.80;;;;;;4908978;29;20027;-88
2023/08/20 01:54:53;;;;;;;25.92;19.20;;;22.20;96.00;;;;;;4898338;29;20033;-87
2023/08/20 01:57:19;;;;;;;35.70;21.35;;;22.30;95.90;;;;;;4911509;29;20049;-88
2023/08/20 01:59:45;;;;;;;31.60;19.02;;;22.30;96.00;;;;;;4912041;29;20021;-89
2023/08/20 02:02:10;;;;;;;32.80;19.42;;;22.30;96.00;;;;;;4913828;29;20025;-87
2023/08/20 02:04:36;;;;;;;28.92;19.95;;;22.40;95.50;;;;;;4915819;29;20023;-87
2023/08/20 02:07:02;;;;;;;33.65;20.60;;;22.40;95.50;;;;;;4916102;29;20029;-88
2023/08/20 02:09:28;;;;;;;25.70;18.75;;;22.40;95.60;;;;;;4913434;29;20048;-88
2023/08/20 02:11:55;;;;;;;31.17;19.42;;;22.40;95.60;;;;;;4897039;29;20036;-87
2023/08/20 02:14:21;;;;;;;26.60;18.58;;;22.40;95.70;;;;;;4913815;29;20035;-87
2023/08/20 02:16:47;;;;;;;28.02;17.63;;;22.40;95.80;;;;;;4900647;29;20033;-87
2023/08/20 02:19:13;;;;;;;28.35;21.50;;;22.30;95.90;;;;;;4901482;29;20146;-88
2023/08/20 02:21:39;;;;;;;28.00;20.10;;;22.30;96.00;;;;;;4913465;29;20057;-87
2023/08/20 02:24:06;;;;;;;26.15;18.15;;;22.20;96.10;;;;;;4908573;29;20453;-88
2023/08/20 02:26:31;;;;;;;25.60;19.48;;;22.20;96.40;;;;;;4892956;29;20036;-88
2023/08/20 02:28:57;;;;;;;29.08;17.77;;;22.20;96.50;;;;;;4903019;29;20526;-88
2023/08/20 02:31:23;;;;;;;29.52;18.60;;;22.10;96.50;;;;;;4921649;29;20092;-89
2023/08/20 02:33:49;;;;;;;25.65;18.35;;;22.10;96.60;;;;;;4898661;29;20510;-89
2023/08/20 02:36:15;;;;;;;26.75;18.17;;;22.10;96.80;;;;;;4903183;29;20033;-88
2023/08/20 02:38:41;;;;;;;31.63;19.85;;;22.20;96.70;;;;;;4884264;29;20108;-90
2023/08/20 02:41:07;;;;;;;25.77;19.23;;;22.20;96.70;;;;;;4900988;29;20043;-88
2023/08/20 02:43:33;;;;;;;24.20;18.13;;;22.20;96.80;;;;;;4888909;29;20021;-89
2023/08/20 02:45:58;;;;;;;30.05;19.15;;;22.20;96.70;;;;;;4886769;29;20064;-87
2023/08/20 02:48:28;;;;;;;34.47;20.20;;;22.20;96.70;;;;;;4885065;29;20433;-89
2023/08/20 02:50:54;;;;;;;26.15;18.88;;;22.20;96.80;;;;;;4905941;29;20072;-88
2023/08/20 02:53:21;;;;;;;29.10;19.50;;;22.20;96.90;;;;;;4903393;29;20103;-88
2023/08/20 02:55:47;;;;;;;33.42;20.95;;;22.20;97.00;;;;;;4895346;29;20028;-89
2023/08/20 02:58:12;;;;;;;31.48;20.90;;;22.20;96.90;;;;;;4899205;29;20044;-89
2023/08/20 03:00:39;;;;;;;26.10;20.38;;;22.30;96.80;;;;;;4897615;29;20029;-90
2023/08/20 03:03:08;;;;;;;27.95;20.35;;;22.30;96.60;;;;;;4884632;29;20092;-90
2023/08/20 03:05:34;;;;;;;31.52;21.77;;;22.40;96.50;;;;;;4898499;29;20145;-91
2023/08/20 03:08:00;;;;;;;26.65;21.83;;;22.60;96.20;;;;;;4887039;29;20028;-90
2023/08/20 03:10:27;;;;;;;23.65;20.52;;;22.70;95.80;;;;;;4895594;29;20029;-88
2023/08/20 03:12:53;;;;;;;24.20;20.88;;;22.90;95.40;;;;;;4902597;29;20028;-88
2023/08/20 03:15:19;;;;;;;34.72;21.95;;;23.00;95.20;;;;;;4921633;29;20081;-88
2023/08/20 03:17:45;;;;;;;34.40;22.30;;;23.00;95.10;;;;;;4924264;29;20077;-88
2023/08/20 03:20:11;;;;;;;26.92;20.92;;;23.10;94.90;;;;;;4905513;29;20028;-90
2023/08/20 03:22:38;;;;;;;26.58;21.90;;;23.10;95.10;;;;;;4873974;29;20494;-89
2023/08/20 03:25:05;;;;;;;27.85;21.42;;;23.10;95.10;;;;;;4910878;29;20438;-89
2023/08/20 03:27:31;;;;;;;29.17;21.98;;;23.10;94.90;;;;;;4904933;29;20033;-88
2023/08/20 03:29:58;;;;;;;27.80;22.38;;;23.10;95.10;;;;;;4903622;29;20017;-88
2023/08/20 03:32:24;;;;;;;29.87;24.40;;;22.80;95.20;;;;;;4905456;29;20036;-89
2023/08/20 03:34:50;;;;;;;25.05;22.25;;;22.50;96.10;;;;;;4905180;29;20086;-89
2023/08/20 03:37:16;;;;;;;37.97;27.42;;;22.20;96.70;;;;;;4905372;29;20060;-89
2023/08/20 03:39:42;;;;;;;27.23;24.33;;;21.80;97.70;;;;;;4887975;29;20029;-89
2023/08/20 03:42:08;;;;;;;31.13;25.42;;;21.60;98.60;;;;;;4904889;29;20061;-89
2023/08/20 03:44:34;;;;;;;26.80;24.00;;;21.40;99.30;;;;;;4904152;29;20025;-88
2023/08/20 03:47:00;;;;;;;25.63;22.80;;;21.20;99.80;;;;;;4904407;29;20064;-89
2023/08/20 03:49:25;;;;;;;25.23;22.70;;;21.10;99.90;;;;;;4893476;29;20024;-89
2023/08/20 03:51:51;;;;;;;28.50;24.70;;;21.00;99.90;;;;;;4908752;29;20032;-89
2023/08/20 03:54:18;;;;;;;24.75;21.25;;;20.90;99.90;;;;;;4890004;29;20027;-90
2023/08/20 03:56:44;;;;;;;22.92;20.33;;;20.80;99.90;;;;;;4907082;29;20036;-88
2023/08/20 03:59:10;;;;;;;21.92;19.60;;;20.60;99.90;;;;;;4908999;29;20090;-91
2023/08/20 04:01:36;;;;;;;20.40;18.25;;;20.50;99.90;;;;;;4900396;29;20036;-89
2023/08/20 04:04:03;;;;;;;20.05;17.95;;;20.40;99.90;;;;;;4900581;29;20089;-90
2023/08/20 04:06:29;;;;;;;20.40;18.20;;;20.40;99.90;;;;;;4903915;29;20064;-90
2023/08/20 04:08:55;;;;;;;19.00;17.00;;;20.30;99.90;;;;;;4896226;29;20036;-90
2023/08/20 04:11:21;;;;;;;25.58;20.00;;;20.20;99.90;;;;;;4912436;29;20103;-89
2023/08/20 04:13:47;;;;;;;25.48;21.67;;;20.20;99.90;;;;;;4911109;29;20072;-88
2023/08/20 04:16:13;;;;;;;22.75;20.55;;;20.20;99.90;;;;;;4918354;29;20026;-92
2023/08/20 04:18:39;;;;;;;23.50;19.73;;;20.20;99.90;;;;;;4922996;29;20087;-89
2023/08/20 04:21:05;;;;;;;23.10;20.73;;;20.20;99.90;;;;;;4926982;29;20070;-90
2023/08/20 04:23:31;;;;;;;21.25;18.83;;;20.00;99.90;;;;;;4886054;29;20124;-92
2023/08/20 04:25:57;;;;;;;22.48;20.10;;;20.00;99.90;;;;;;4908981;29;20040;-89
2023/08/20 04:28:23;;;;;;;26.10;21.45;;;20.00;99.90;;;;;;4908872;29;20025;-89
2023/08/20 04:30:49;;;;;;;26.10;23.38;;;19.90;99.90;;;;;;4902089;29;20036;-87
2023/08/20 04:33:15;;;;;;;25.42;22.73;;;19.90;99.90;;;;;;4902471;29;20324;-89
2023/08/20 04:35:41;;;;;;;25.30;21.58;;;19.90;99.90;;;;;;4904581;29;20058;-90
2023/08/20 04:38:08;;;;;;;25.42;22.80;;;19.90;99.90;;;;;;4909684;29;20028;-90
2023/08/20 04:40:33;;;;;;;27.42;24.33;;;19.90;99.90;;;;;;4871276;29;20048;-87
2023/08/20 04:42:59;;;;;;;24.88;21.17;;;20.00;99.90;;;;;;4901662;29;20059;-90
2023/08/20 04:45:25;;;;;;;27.27;24.38;;;20.10;99.90;;;;;;4922845;29;20016;-90
2023/08/20 04:47:51;;;;;;;30.30;23.42;;;20.20;99.90;;;;;;4890502;29;20056;-87
2023/08/20 04:50:17;;;;;;;32.45;23.25;;;20.30;99.90;;;;;;4909777;29;20024;-90
2023/08/20 04:52:43;;;;;;;29.52;23.63;;;20.50;99.90;;;;;;4893677;29;20039;-87
2023/08/20 04:55:09;;;;;;;31.27;24.05;;;20.60;99.90;;;;;;4898520;29;20409;-88
2023/08/20 04:57:35;;;;;;;28.75;21.67;;;20.70;99.90;;;;;;4921652;29;20076;-88
2023/08/20 05:00:01;;;;;;;25.75;23.00;;;20.90;99.90;;;;;;4906874;29;20029;-87
2023/08/20 05:02:27;;;;;;;24.92;21.77;;;20.90;99.90;;;;;;4901773;29;20115;-88
2023/08/20 05:04:52;;;;;;;25.95;22.95;;;21.00;99.90;;;;;;4915528;29;20013;-88
2023/08/20 05:07:18;;;;;;;22.58;20.13;;;21.10;99.90;;;;;;4899933;29;20063;-89
2023/08/20 05:09:44;;;;;;;24.08;21.60;;;21.30;99.90;;;;;;4901548;29;20056;-87
2023/08/20 05:12:10;;;;;;;24.38;21.63;;;21.30;99.90;;;;;;4911511;29;20033;-87
2023/08/20 05:14:37;;;;;;;23.73;20.95;;;21.50;99.90;;;;;;4895239;29;20020;-88
2023/08/20 05:17:03;;;;;;;21.48;19.27;;;21.60;99.90;;;;;;4898394;29;20058;-88
2023/08/20 05:19:29;;;;;;;22.83;20.23;;;21.60;99.90;;;;;;4919382;29;20008;-89
2023/08/20 05:21:58;;;;;;;26.05;20.10;;;21.60;99.90;;;;;;4901388;29;20071;-89
2023/08/20 05:24:24;;;;;;;22.33;18.52;;;21.40;99.90;;;;;;4898910;29;20033;-87
2023/08/20 05:27:09;;;;;;;22.60;20.20;;;21.40;99.90;;;;;;4883229;29;20037;-89
2023/08/20 05:29:36;;;;;;;21.45;19.23;;;21.40;99.90;;;;;;4882899;29;20028;-89
2023/08/20 05:32:02;;;;;;;25.35;18.42;;;21.30;99.90;;;;;;4899686;29;20021;-91
2023/08/20 05:34:28;;;;;;;20.40;18.20;;;21.40;99.90;;;;;;4887739;29;20036;-90
2023/08/20 05:36:54;;;;;;;20.80;18.60;;;21.30;99.90;;;;;;4881533;29;20028;-92
2023/08/20 05:39:20;;;;;;;18.83;16.98;;;21.40;99.90;;;;;;4892204;29;20025;-92
2023/08/20 05:41:46;;;;;;;21.75;17.20;;;21.70;99.90;;;;;;4906430;29;20394;-89
2023/08/20 05:44:12;;;;;;;16.98;15.30;;;22.00;99.90;;;;;;4908735;29;20033;-90
2023/08/20 05:46:40;;;;;;;18.10;16.30;;;22.50;99.90;;;;;;4612679;29;8661083;-91
2023/08/20 05:49:07;;;;;;;17.83;15.30;;;22.90;98.70;;;;;;4901805;29;20044;-89
2023/08/20 05:51:32;;;;;;;17.98;16.08;;;23.50;98.10;;;;;;4886245;29;20124;-89
2023/08/20 05:53:58;;;;;;;17.60;15.90;;;24.20;96.70;;;;;;4907618;29;20538;-89
2023/08/20 05:56:24;;;;;;;16.27;14.50;;;24.50;95.60;;;;;;4913144;29;20043;-89
2023/08/20 05:58:50;;;;;;;19.80;15.10;;;24.60;94.80;;;;;;4907220;29;20474;-88
2023/08/20 06:01:16;;;;;;;16.48;14.23;;;24.60;94.20;;;;;;4900086;29;20103;-89
2023/08/20 06:03:42;;;;;;;16.02;14.40;;;24.30;93.70;;;;;;4883525;29;20062;-89
2023/08/20 06:06:08;;;;;;;18.00;13.57;;;24.10;94.20;;;;;;4902699;29;20070;-91
2023/08/20 06:08:35;;;;;;;15.57;13.90;;;24.10;94.40;;;;;;4884374;29;20088;-90
2023/08/20 06:11:01;;;;;;;17.92;14.02;;;24.20;94.80;;;;;;4909287;29;20048;-89
2023/08/20 06:13:28;;;;;;;15.98;13.18;;;24.50;94.20;;;;;;4907841;29;20025;-91
2023/08/20 06:15:54;;;;;;;15.88;13.82;;;25.30;93.00;;;;;;4886526;29;20450;-91
2023/08/20 06:18:20;;;;;;;13.95;12.43;;;26.20;91.90;;;;;;4909104;29;20112;-89
2023/08/20 06:20:46;;;;;;;14.88;13.00;;;27.50;89.90;;;;;;4890773;29;20028;-87
2023/08/20 06:23:13;;;;;;;12.68;11.40;;;29.30;86.50;;;;;;4906766;29;20108;-88
2023/08/20 06:25:38;;;;;;;;;;;29.90;79.10;;;;;;4894222;29;20032;-87
2023/08/20 06:28:04;;;;;;;15.33;12.90;;;31.30;81.20;;;;;;4897964;29;19980;-89
2023/08/20 06:30:31;;;;;;;13.20;11.63;;;;;;;;;;4873548;29;20343;-88
2023/08/20 06:32:56;;;;;;;12.80;11.52;;;31.80;75.20;;;;;;4921575;29;20047;-88
2023/08/20 06:35:22;;;;;;;12.83;11.50;;;33.90;65.40;;;;;;4901793;29;20064;-88
2023/08/20 06:37:48;;;;;;;12.53;11.13;;;33.90;64.10;;;;;;4894946;29;20380;-90
2023/08/20 06:40:14;;;;;;;12.85;11.55;;;34.20;63.30;;;;;;4889535;29;20394;-90
2023/08/20 06:42:40;;;;;;;12.37;11.10;;;34.80;61.80;;;;;;4884718;29;20029;-89
2023/08/20 06:45:07;;;;;;;12.07;10.57;;;35.10;60.30;;;;;;4906366;29;20307;-90
2023/08/20 06:47:33;;;;;;;11.40;10.27;;;35.10;60.10;;;;;;4894141;29;20868;-88
2023/08/20 06:49:59;;;;;;;12.83;11.53;;;34.50;59.10;;;;;;4886903;29;20029;-87
2023/08/20 06:52:25;;;;;;;12.63;11.23;;;33.60;59.90;;;;;;4878727;29;20036;-86
2023/08/20 06:54:51;;;;;;;12.70;11.40;;;32.50;61.90;;;;;;4906927;29;20084;-87
2023/08/20 06:57:17;;;;;;;17.17;13.27;;;31.90;64.10;;;;;;4897843;29;20435;-87
2023/08/20 06:59:45;;;;;;;13.10;11.60;;;31.60;65.30;;;;;;4915539;29;20053;-87
2023/08/20 07:02:11;;;;;;;11.82;10.35;;;31.50;65.60;;;;;;4888456;29;20035;-87
2023/08/20 07:04:37;;;;;;;12.57;11.37;;;31.40;65.60;;;;;;4879961;29;20025;-85
2023/08/20 07:07:07;;;;;;;12.37;10.90;;;31.20;66.10;;;;;;4895922;29;20045;-88
2023/08/20 07:09:33;;;;;;;9.82;8.90;;;31.50;67.00;;;;;;4888864;29;20425;-87
2023/08/20 07:12:00;;;;;;;11.80;9.10;;;32.00;64.70;;;;;;4893776;29;20056;-87
2023/08/20 07:14:26;;;;;;;12.13;8.60;;;32.40;63.40;;;;;;4909989;29;20302;-86
2023/08/20 07:16:52;;;;;;;9.47;8.30;;;32.70;61.70;;;;;;4879401;29;20487;-88
2023/08/20 07:19:18;;;;;;;12.30;9.87;;;33.00;62.00;;;;;;4900416;29;20040;-85
2023/08/20 07:21:43;;;;;;;10.40;9.17;;;33.50;60.60;;;;;;4893530;29;20364;-88
2023/08/20 07:24:11;;;;;;;14.23;9.13;;;34.30;59.80;;;;;;4897650;29;20029;-87
2023/08/20 07:26:36;;;;;;;10.93;8.93;;;34.60;58.40;;;;;;4894861;29;20463;-86
2023/08/20 07:29:03;;;;;;;12.97;9.03;;;35.20;56.30;;;;;;4904114;29;20021;-85
2023/08/20 07:31:33;;;;;;;11.10;9.07;;;35.80;55.90;;;;;;4900436;29;20486;-87
2023/08/20 07:34:02;;;;;;;8.32;7.47;;;36.60;54.80;;;;;;4884432;29;20487;-86
2023/08/20 07:36:28;;;;;;;11.15;8.20;;;37.00;53.70;;;;;;4896112;29;20025;-85
2023/08/20 07:38:54;;;;;;;9.75;7.20;;;37.20;52.60;;;;;;4902248;29;20029;-86
2023/08/20 07:41:21;;;;;;;9.70;8.20;;;36.90;51.70;;;;;;4901277;29;20033;-90
2023/08/20 07:43:48;;;;;;;8.00;7.30;;;37.00;52.40;;;;;;4905989;29;20024;-87
2023/08/20 07:46:14;;;;;;;10.95;8.50;;;36.90;51.70;;;;;;4883182;29;20091;-83
2023/08/20 07:48:40;;;;;;;10.57;7.70;;;;;;;;;;4879856;29;20491;-92
2023/08/20 07:51:06;;;;;;;11.38;7.53;;;37.00;51.40;;;;;;4906891;29;20427;-86
2023/08/20 07:53:33;;;;;;;;;;;38.80;50.60;;;;;;4882025;29;20029;-87
2023/08/20 07:56:00;;;;;;;8.70;5.80;;;39.00;49.90;;;;;;4908247;29;19912;-90
2023/08/20 07:58:26;;;;;;;7.45;6.72;;;38.60;48.10;;;;;;4899039;29;20084;-88
2023/08/20 08:00:52;;;;;;;6.95;6.35;;;38.50;48.30;;;;;;4909690;29;20024;-87
2023/08/20 08:03:18;;;;;;;8.57;6.15;;;39.50;47.80;;;;;;4906390;29;20064;-92
2023/08/20 08:05:48;;;;;;;7.93;5.60;;;40.40;46.30;;;;;;4899015;29;20028;-90
2023/08/20 08:08:17;;;;;;;8.98;5.85;;;41.30;45.00;;;;;;4912087;29;20092;-91
2023/08/20 08:10:46;;;;;;;10.38;6.10;;;41.70;43.60;;;;;;4880719;29;20043;-91
2023/08/20 08:13:13;;;;;;;6.65;5.97;;;41.80;43.20;;;;;;4873411;29;20111;-86
2023/08/20 08:15:39;;;;;;;10.05;5.55;;;42.30;42.90;;;;;;4870710;29;20034;-88
2023/08/20 08:18:06;;;;;;;10.43;5.32;;;42.50;42.80;;;;;;4856246;29;20123;-88
2023/08/20 08:20:32;;;;;;;6.50;5.90;;;43.20;42.30;;;;;;4864181;29;20064;-89
2023/08/20 08:22:58;;;;;;;6.03;5.43;;;43.40;41.30;;;;;;4873868;29;20041;-86
2023/08/20 08:25:24;;;;;;;6.60;5.40;;;43.60;41.20;;;;;;4847209;29;20052;-84
2023/08/20 08:27:50;;;;;;;6.47;4.78;;;43.60;40.80;;;;;;4866357;29;20033;-88
2023/08/20 08:30:16;;;;;;;7.78;5.15;;;43.50;40.20;;;;;;4877403;29;20148;-87
2023/08/20 08:32:41;;;;;;;6.00;4.50;;;43.80;40.70;;;;;;4863606;29;20457;-88
2023/08/20 08:35:10;;;;;;;5.32;4.13;;;44.20;39.40;;;;;;4856952;29;20282;-89
2023/08/20 08:37:36;;;;;;;7.13;4.53;;;43.80;39.90;;;;;;4849714;29;20029;-86
2023/08/20 08:40:06;;;;;;;8.98;5.00;;;43.70;40.10;;;;;;4867505;29;20113;-87
2023/08/20 08:42:35;;;;;;;9.15;5.35;;;44.20;40.40;;;;;;4872181;29;20117;-87
2023/08/20 08:45:01;;;;;;;4.93;4.40;;;44.50;39.30;;;;;;4865041;29;20523;-89
2023/08/20 08:47:28;;;;;;;7.32;5.18;;;44.50;38.70;;;;;;4871164;29;20117;-91
2023/08/20 08:49:57;;;;;;;9.85;4.97;;;44.30;39.60;;;;;;4899731;29;20057;-89
2023/08/20 08:52:23;;;;;;;6.85;4.82;;;43.90;39.80;;;;;;4887050;29;20490;-88
2023/08/20 08:54:49;;;;;;;8.90;5.20;;;43.70;39.90;;;;;;4903447;29;20032;-91
2023/08/20 08:57:15;;;;;;;5.88;4.78;;;44.20;39.60;;;;;;4906082;29;20031;-89
2023/08/20 08:59:42;;;;;;;6.78;5.20;;;;;;;;;;4915961;29;20016;-88
2023/08/20 09:02:10;;;;;;;7.10;4.45;;;;;;;;;;4905436;29;20032;-87
2023/08/20 09:04:45;;;;;;;7.15;4.68;;;;;;;;;;4898126;29;20356;-87
2023/08/20 09:07:13;;;;;;;7.10;4.97;;;44.60;39.10;;;;;;4895489;29;20123;-87
2023/08/20 09:09:43;;;;;;;5.65;4.00;;;44.40;38.30;;;;;;4900016;29;20028;-88
2023/08/20 09:12:16;;;;;;;4.32;3.92;;;44.50;38.20;;;;;;4899274;29;20029;-89
2023/08/20 09:14:48;;;;;;;5.20;3.80;;;44.30;38.30;;;;;;4890561;29;20021;-85
2023/08/20 09:17:15;;;;;;;5.55;4.18;;;44.10;37.70;;;;;;4900703;29;20040;-87
2023/08/20 09:19:44;;;;;;;3.85;3.47;;;43.40;38.00;;;;;;4886481;29;20029;-88
2023/08/20 09:22:12;;;;;;;5.60;3.60;;;43.00;38.40;;;;;;4903902;29;20028;-90
2023/08/20 09:24:45;;;;;;;8.95;4.05;;;43.10;38.60;;;;;;4900676;29;20025;-88
2023/08/20 09:27:14;;;;;;;5.40;3.60;;;43.70;38.50;;;;;;4884697;29;20040;-86
2023/08/20 09:29:48;;;;;;;6.20;4.13;;;44.10;37.70;;;;;;4901068;29;20031;-86
2023/08/20 09:32:19;;;;;;;7.13;4.35;;;43.80;37.90;;;;;;4886888;29;20043;-88
2023/08/20 09:34:45;;;;;;;5.07;4.05;;;43.30;38.50;;;;;;4887923;29;20085;-86
2023/08/20 09:37:16;;;;;;;5.15;3.67;;;43.40;39.00;;;;;;4899661;29;20021;-86
2023/08/20 09:39:42;;;;;;;3.72;3.33;;;43.50;38.10;;;;;;4897145;29;20440;-88
2023/08/20 09:42:09;;;;;;;7.85;5.70;;;43.20;38.00;;;;;;4909413;29;20088;-89
2023/08/20 09:44:40;;;;;;;5.50;5.00;;;43.00;38.70;;;;;;4903914;29;20024;-85
2023/08/20 09:47:11;;;;;;;5.50;5.00;;;43.20;38.50;;;;;;4911158;29;20053;-86
2023/08/20 09:49:41;;;;;;;7.13;4.22;;;42.90;38.70;;;;;;4893986;29;20021;-87
2023/08/20 09:52:09;;;;;;;4.97;4.47;;;42.70;39.00;;;;;;4886409;29;20080;-89
2023/08/20 09:54:50;;;;;;;6.40;4.65;;;41.90;39.60;;;;;;4906250;29;20031;-92
2023/08/20 09:57:27;;;;;;;6.68;5.05;;;41.70;40.40;;;;;;4905307;29;20044;-90
2023/08/20 09:59:54;;;;;;;5.13;4.60;;;40.90;41.10;;;;;;4915497;29;20085;-86
2023/08/20 10:02:20;;;;;;;5.45;4.43;;;40.60;41.90;;;;;;4901888;29;20025;-88
2023/08/20 10:04:47;;;;;;;5.05;4.55;;;40.20;41.40;;;;;;4886763;29;20029;-89
2023/08/20 10:07:13;;;;;;;4.93;4.40;;;39.20;42.30;;;;;;4906045;29;20149;-89
2023/08/20 10:09:40;;;;;;;5.75;4.93;;;38.20;43.50;;;;;;4899300;29;20036;-86
2023/08/20 10:12:06;;;;;;;6.85;5.35;;;37.50;44.90;;;;;;4912223;29;20084;-87
2023/08/20 10:14:32;;;;;;;6.63;5.50;;;37.10;45.90;;;;;;4894277;29;20029;-89
2023/08/20 10:17:00;;;;;;;7.50;5.93;;;36.50;46.90;;;;;;4898599;29;20039;-89
2023/08/20 10:19:26;;;;;;;7.55;5.85;;;;;;;;;;4905381;29;20078;-87
2023/08/20 10:21:56;;;;;;;7.75;6.93;;;35.90;48.30;;;;;;4887740;29;20111;-89
2023/08/20 10:24:24;;;;;;;6.13;5.53;;;35.40;49.50;;;;;;4903140;29;20103;-87
2023/08/20 10:27:08;;;;;;;7.10;6.07;;;;;;;;;;4909490;29;20036;-87
2023/08/20 10:29:38;;;;;;;10.50;8.13;;;;;;;;;;4924125;29;20028;-90
2023/08/20 10:32:06;;;;;;;7.80;6.10;;;34.90;49.70;;;;;;4853840;29;20040;-86
2023/08/20 10:34:37;;;;;;;8.05;6.53;;;;;;;;;;4900517;29;20409;-85
2023/08/20 10:37:13;;;;;;;7.55;6.78;;;32.30;54.60;;;;;;4907050;29;20024;-87
2023/08/20 10:39:39;;;;;;;7.70;6.07;;;32.30;55.60;;;;;;4908277;29;20078;-87
2023/08/20 10:42:19;;;;;;;7.60;6.40;;;32.30;55.80;;;;;;4905334;29;20027;-87
2023/08/20 10:45:01;;;;;;;7.72;6.57;;;;;;;;;;4895825;29;20032;-91
2023/08/20 10:47:42;;;;;;;8.13;6.47;;;;;;;;;;4901158;29;20051;-93
2023/08/20 10:50:10;;;;;;;8.65;6.35;;;;;;;;;;4898808;29;20025;-92
2023/08/20 10:52:48;;;;;;;8.57;6.70;;;;;;;;;;4924813;29;20498;-95
2023/08/20 10:55:23;;;;;;;8.38;7.63;;;;;;;;;;4911463;29;20044;-93
2023/08/20 10:57:55;;;;;;;8.00;6.60;;;;;;;;;;4897432;29;20039;-93
2023/08/20 11:00:21;;;;;;;7.50;6.28;;;32.20;55.90;;;;;;4910880;29;20084;-93
2023/08/20 11:02:49;;;;;;;9.60;6.68;;;31.80;57.10;;;;;;4908138;29;20039;-89
2023/08/20 11:05:19;;;;;;;9.60;6.85;;;31.60;57.30;;;;;;4878322;29;20049;-89
2023/08/20 11:07:47;;;;;;;7.38;6.57;;;31.50;57.50;;;;;;4878254;29;20047;-85
2023/08/20 11:10:17;;;;;;;6.55;5.95;;;31.30;58.00;;;;;;4879284;29;20037;-83
2023/08/20 11:12:46;;;;;;;7.43;6.63;;;31.00;58.00;;;;;;4870376;29;20021;-86
2023/08/20 11:15:12;;;;;;;11.05;7.75;;;30.70;59.30;;;;;;4871292;29;20048;-86
2023/08/20 11:17:48;;;;;;;7.70;6.90;;;30.60;60.00;;;;;;4881275;29;20045;-85
2023/08/20 11:20:17;;;;;;;7.95;6.68;;;30.50;60.00;;;;;;4864676;29;20037;-84
2023/08/20 11:22:42;;;;;;;8.18;7.32;;;30.40;60.70;;;;;;4879616;29;20104;-86
2023/08/20 11:25:12;;;;;;;10.00;7.85;;;30.20;61.30;;;;;;4895416;29;20052;-87
2023/08/20 11:27:44;;;;;;;8.00;7.25;;;30.10;60.90;;;;;;4881312;29;20087;-86
2023/08/20 11:30:13;;;;;;;8.88;7.15;;;30.00;61.10;;;;;;4878212;29;20171;-86
2023/08/20 11:32:39;;;;;;;11.93;8.18;;;29.70;62.10;;;;;;4861559;29;20051;-87
2023/08/20 11:35:07;;;;;;;12.33;8.13;;;29.60;62.90;;;;;;4864281;29;20462;-90
2023/08/20 11:37:33;;;;;;;8.15;7.35;;;29.60;63.30;;;;;;4887988;29;20060;-90
2023/08/20 11:39:59;;;;;;;7.70;6.95;;;29.60;62.60;;;;;;4886561;29;20052;-88
2023/08/20 11:42:25;;;;;;;11.10;6.97;;;;;;;;;;4902488;29;20048;-88
2023/08/20 11:44:51;;;;;;;17.97;8.87;;;;;;;;;;4903035;29;20075;-87
2023/08/20 11:47:18;;;;;;;8.25;7.22;;;;;;;;;;4900109;29;20140;-86
2023/08/20 11:49:44;;;;;;;12.05;7.75;;;;;;;;;;4901825;29;20024;-88
2023/08/20 11:52:13;;;;;;;15.20;8.63;;;;;;;;;;4916563;29;20111;-92
2023/08/20 11:54:39;;;;;;;15.20;7.35;;;;;;;;;;4910713;29;20137;-90
2023/08/20 11:57:07;;;;;;;8.00;6.80;;;29.50;62.70;;;;;;4914470;29;20024;-89
2023/08/20 11:59:33;;;;;;;13.68;7.53;;;29.50;64.60;;;;;;4916655;29;20275;-92
2023/08/20 12:02:03;;;;;;;13.85;8.27;;;29.60;65.10;;;;;;4909939;29;20025;-91
2023/08/20 12:04:31;;;;;;;9.20;7.18;;;29.60;64.80;;;;;;4900669;29;20120;-90
2023/08/20 12:07:26;;;;;;;19.23;13.00;;;29.50;64.30;;;;;;4907139;29;20041;-88
2023/08/20 12:09:56;;;;;;;9.50;8.50;;;29.40;64.40;;;;;;4898370;29;20041;-90
2023/08/20 12:12:22;;;;;;;18.75;7.32;;;;;;;;;;4887262;29;20025;-89
2023/08/20 12:14:48;;;;;;;14.83;5.50;;;;;;;;;;4884425;29;20045;-89
2023/08/20 12:17:18;;;;;;;19.90;5.57;;;;;;;;;;4872959;29;20276;-88
2023/08/20 12:19:45;;;;;;;10.43;4.97;;;;;;;;;;4866200;29;20126;-84
2023/08/20 12:22:11;;;;;;;13.07;5.15;;;;;;;;;;4862466;29;20029;-84
2023/08/20 12:24:38;;;;;;;11.40;4.68;;;;;;;;;;4879792;29;20027;-84
2023/08/20 12:27:04;;;;;;;5.47;4.50;;;;;;;;;;4881083;29;20060;-83
2023/08/20 12:29:30;;;;;;;11.90;5.13;;;;;;;;;;4880388;29;20033;-87
2023/08/20 12:31:56;;;;;;;7.90;6.00;;;;;;;;;;4867458;29;20044;-86
2023/08/20 12:34:23;;;;;;;10.37;5.67;;;;;;;;;;4886604;29;20074;-90
2023/08/20 12:36:50;;;;;;;;;;;;;;;;;;4877001;29;20284;-90
2023/08/20 12:39:16;;;;;;;7.35;4.15;;;;;;;;;;4890746;29;19908;-92
2023/08/20 12:41:42;;;;;;;6.43;4.60;;;;;;;;;;4898441;29;20373;-92
2023/08/20 12:44:11;;;;;;;7.60;5.28;;;;;;;;;;4892353;29;20040;-93
2023/08/20 12:46:37;;;;;;;7.15;4.43;;;;;;;;;;4897861;29;20140;-92
2023/08/20 12:49:04;;;;;;;8.60;4.70;;;;;;;;;;4907557;29;20021;-89
2023/08/20 12:51:32;;;;;;;5.97;4.28;;;;;;;;;;4912770;29;20052;-90